<?xml version="1.0" encoding="UTF-8"?>
<gpx version="1.1" creator="Swiss Map online 2.5.0.201407081030" xmlns="http://www.topografix.com/GPX/1/1">
  <metadata>
    <author>
      <name>Federal Office of Topography Switzerland</name>
    </author>
  </metadata>
  <trk>
    <trkseg>
      <trkpt lat="46.53855262265316" lon="6.731682405850159">
        <time>2016-03-31T13:53:34.000+02:00</time>
      </trkpt>
      <trkpt lat="46.5391397428983" lon="6.732065840560036">
        <time>2016-03-31T13:54:34.000+02:00</time>
      </trkpt>
      <trkpt lat="46.53995214733496" lon="6.7325115298274865">
        <time>2016-03-31T13:55:34.000+02:00</time>
      </trkpt>
      <trkpt lat="46.54045012121006" lon="6.733026514978608">
        <time>2016-03-31T13:56:34.000+02:00</time>
      </trkpt>
      <trkpt lat="46.540677831648914" lon="6.733479843630492">
        <time>2016-03-31T13:56:34.000+02:00</time>
      </trkpt>
      <trkpt lat="46.54088446539929" lon="6.734161599171437">
        <time>2016-03-31T13:56:34.000+02:00</time>
      </trkpt>
      <trkpt lat="46.540390736644014" lon="6.734330984422851">
        <time>2016-03-31T13:56:34.000+02:00</time>
      </trkpt>
      <trkpt lat="46.53998716173013" lon="6.734531786415372">
        <time>2016-03-31T13:56:34.000+02:00</time>
      </trkpt>
      <trkpt lat="46.53956392111368" lon="6.735189127477251">
        <time>2016-03-31T13:56:34.000+02:00</time>
      </trkpt>
      <trkpt lat="46.539929169287376" lon="6.736064369496445">
        <time>2016-03-31T13:57:34.000+02:00</time>
      </trkpt>
      <trkpt lat="46.54051929165674" lon="6.736936709203708">
        <time>2016-03-31T13:58:34.000+02:00</time>
      </trkpt>
      <trkpt lat="46.54101905330447" lon="6.737745051833496">
        <time>2016-03-31T13:59:34.000+02:00</time>
      </trkpt>
      <trkpt lat="46.54163064785092" lon="6.738454184070136">
        <time>2016-03-31T14:00:34.000+02:00</time>
      </trkpt>
      <trkpt lat="46.54201755739814" lon="6.739198828056168">
        <time>2016-03-31T14:00:34.000+02:00</time>
      </trkpt>
      <trkpt lat="46.542133403523586" lon="6.739751419765096">
        <time>2016-03-31T14:00:34.000+02:00</time>
      </trkpt>
      <trkpt lat="46.54211591880752" lon="6.740566480575162">
        <time>2016-03-31T14:01:34.000+02:00</time>
      </trkpt>
      <trkpt lat="46.54241266229625" lon="6.741279713753777">
        <time>2016-03-31T14:01:34.000+02:00</time>
      </trkpt>
      <trkpt lat="46.542821642215834" lon="6.741958916867136">
        <time>2016-03-31T14:01:34.000+02:00</time>
      </trkpt>
      <trkpt lat="46.543072802465346" lon="6.7425749708384775">
        <time>2016-03-31T14:01:34.000+02:00</time>
      </trkpt>
      <trkpt lat="46.54334684599697" lon="6.743255924847656">
        <time>2016-03-31T14:01:34.000+02:00</time>
      </trkpt>
      <trkpt lat="46.54375481871616" lon="6.743772195488">
        <time>2016-03-31T14:01:34.000+02:00</time>
      </trkpt>
      <trkpt lat="46.54445871414286" lon="6.744871385448125">
        <time>2016-03-31T14:02:34.000+02:00</time>
      </trkpt>
      <trkpt lat="46.54484419139939" lon="6.745387966791853">
        <time>2016-03-31T14:02:34.000+02:00</time>
      </trkpt>
      <trkpt lat="46.5454314637994" lon="6.745804187531919">
        <time>2016-03-31T14:03:34.000+02:00</time>
      </trkpt>
      <trkpt lat="46.54617853156178" lon="6.74660952369295">
        <time>2016-03-31T14:04:34.000+02:00</time>
      </trkpt>
      <trkpt lat="46.54633872346202" lon="6.747063819165138">
        <time>2016-03-31T14:04:34.000+02:00</time>
      </trkpt>
      <trkpt lat="46.54654685912776" lon="6.74800644600765">
        <time>2016-03-31T14:05:34.000+02:00</time>
      </trkpt>
      <trkpt lat="46.546683766228725" lon="6.748330660946227">
        <time>2016-03-31T14:05:34.000+02:00</time>
      </trkpt>
      <trkpt lat="46.547045948962676" lon="6.748717199358363">
        <time>2016-03-31T14:05:34.000+02:00</time>
      </trkpt>
      <trkpt lat="46.547093099147624" lon="6.749075158621274">
        <time>2016-03-31T14:05:34.000+02:00</time>
      </trkpt>
      <trkpt lat="46.54716411844216" lon="6.749660989532692">
        <time>2016-03-31T14:05:34.000+02:00</time>
      </trkpt>
      <trkpt lat="46.54750578107831" lon="6.750373767336929">
        <time>2016-03-31T14:06:34.000+02:00</time>
      </trkpt>
      <trkpt lat="46.54793916439481" lon="6.751378761168471">
        <time>2016-03-31T14:07:34.000+02:00</time>
      </trkpt>
      <trkpt lat="46.54812241568786" lon="6.751930583714814">
        <time>2016-03-31T14:07:34.000+02:00</time>
      </trkpt>
      <trkpt lat="46.54834769043827" lon="6.751992920677842">
        <time>2016-03-31T14:07:34.000+02:00</time>
      </trkpt>
      <trkpt lat="46.54888524064081" lon="6.7516275313909455">
        <time>2016-03-31T14:07:34.000+02:00</time>
      </trkpt>
      <trkpt lat="46.54960131571759" lon="6.751031683147692">
        <time>2016-03-31T14:08:34.000+02:00</time>
      </trkpt>
      <trkpt lat="46.549915755344294" lon="6.750962493495287">
        <time>2016-03-31T14:08:34.000+02:00</time>
      </trkpt>
      <trkpt lat="46.55027635335372" lon="6.75108830636282">
        <time>2016-03-31T14:08:34.000+02:00</time>
      </trkpt>
      <trkpt lat="46.55070854984312" lon="6.7518977810991725">
        <time>2016-03-31T14:09:34.000+02:00</time>
      </trkpt>
      <trkpt lat="46.55123305086537" lon="6.753097285397713">
        <time>2016-03-31T14:10:34.000+02:00</time>
      </trkpt>
      <trkpt lat="46.55230274101402" lon="6.755202706840018">
        <time>2016-03-31T14:12:34.000+02:00</time>
      </trkpt>
      <trkpt lat="46.55210132685991" lon="6.755368246294172">
        <time>2016-03-31T14:12:34.000+02:00</time>
      </trkpt>
      <trkpt lat="46.55174445237992" lon="6.7558617375400765">
        <time>2016-03-31T14:12:34.000+02:00</time>
      </trkpt>
      <trkpt lat="46.55143626472879" lon="6.756973988883555">
        <time>2016-03-31T14:13:34.000+02:00</time>
      </trkpt>
      <trkpt lat="46.55105806602248" lon="6.75766332405457">
        <time>2016-03-31T14:13:34.000+02:00</time>
      </trkpt>
      <trkpt lat="46.55067771842477" lon="6.75799409308636">
        <time>2016-03-31T14:13:34.000+02:00</time>
      </trkpt>
      <trkpt lat="46.5492611607597" lon="6.758044499239825">
        <time>2016-03-31T14:15:34.000+02:00</time>
      </trkpt>
      <trkpt lat="46.548923643664516" lon="6.758016144614531">
        <time>2016-03-31T14:15:34.000+02:00</time>
      </trkpt>
      <trkpt lat="46.54826992720035" lon="6.757763586131173">
        <time>2016-03-31T14:15:34.000+02:00</time>
      </trkpt>
      <trkpt lat="46.54775133414873" lon="6.757541930589358">
        <time>2016-03-31T14:15:34.000+02:00</time>
      </trkpt>
      <trkpt lat="46.54718776437595" lon="6.7573208452583815">
        <time>2016-03-31T14:15:34.000+02:00</time>
      </trkpt>
      <trkpt lat="46.54687332084475" lon="6.757389994490616">
        <time>2016-03-31T14:15:34.000+02:00</time>
      </trkpt>
      <trkpt lat="46.546493754309466" lon="6.757851113967103">
        <time>2016-03-31T14:15:34.000+02:00</time>
      </trkpt>
      <trkpt lat="46.54678668529661" lon="6.7579452191932265">
        <time>2016-03-31T14:15:34.000+02:00</time>
      </trkpt>
      <trkpt lat="46.5468210955683" lon="6.7579326804726945">
        <time>2016-03-31T14:15:34.000+02:00</time>
      </trkpt>
      <trkpt lat="46.54731699204028" lon="6.758122092991077">
        <time>2016-03-31T14:15:34.000+02:00</time>
      </trkpt>
      <trkpt lat="46.54795186121016" lon="6.758994319318585">
        <time>2016-03-31T14:16:34.000+02:00</time>
      </trkpt>
      <trkpt lat="46.54831667326367" lon="6.759837317842221">
        <time>2016-03-31T14:17:34.000+02:00</time>
      </trkpt>
      <trkpt lat="46.54856711780988" lon="6.760355770233441">
        <time>2016-03-31T14:17:34.000+02:00</time>
      </trkpt>
      <trkpt lat="46.5487035832963" lon="6.76061485893209">
        <time>2016-03-31T14:17:34.000+02:00</time>
      </trkpt>
      <trkpt lat="46.54872895054879" lon="6.7611035071551315">
        <time>2016-03-31T14:17:34.000+02:00</time>
      </trkpt>
      <trkpt lat="46.549135656206964" lon="6.761424449948075">
        <time>2016-03-31T14:17:34.000+02:00</time>
      </trkpt>
      <trkpt lat="46.5497449463818" lon="6.761775490205535">
        <time>2016-03-31T14:18:34.000+02:00</time>
      </trkpt>
      <trkpt lat="46.55028811170988" lon="6.762355544661127">
        <time>2016-03-31T14:19:34.000+02:00</time>
      </trkpt>
      <trkpt lat="46.55080935990007" lon="6.763033677484075">
        <time>2016-03-31T14:20:34.000+02:00</time>
      </trkpt>
      <trkpt lat="46.55153567269477" lon="6.764165682927537">
        <time>2016-03-31T14:22:34.000+02:00</time>
      </trkpt>
      <trkpt lat="46.55198849143663" lon="6.764681693784733">
        <time>2016-03-31T14:23:34.000+02:00</time>
      </trkpt>
      <trkpt lat="46.55235040142796" lon="6.765035833504709">
        <time>2016-03-31T14:23:34.000+02:00</time>
      </trkpt>
      <trkpt lat="46.55266714326911" lon="6.76535793369407">
        <time>2016-03-31T14:23:34.000+02:00</time>
      </trkpt>
      <trkpt lat="46.55278453817284" lon="6.766204087396832">
        <time>2016-03-31T14:24:34.000+02:00</time>
      </trkpt>
      <trkpt lat="46.55335264171206" lon="6.767207715513246">
        <time>2016-03-31T14:25:34.000+02:00</time>
      </trkpt>
      <trkpt lat="46.55405566571118" lon="6.7682097118374225">
        <time>2016-03-31T14:26:34.000+02:00</time>
      </trkpt>
      <trkpt lat="46.55462261415997" lon="6.769017792287802">
        <time>2016-03-31T14:27:34.000+02:00</time>
      </trkpt>
      <trkpt lat="46.55485242305061" lon="6.76986261047364">
        <time>2016-03-31T14:27:34.000+02:00</time>
      </trkpt>
      <trkpt lat="46.555105470356835" lon="6.770837557327707">
        <time>2016-03-31T14:28:34.000+02:00</time>
      </trkpt>
      <trkpt lat="46.55542710672527" lon="6.772007286438111">
        <time>2016-03-31T14:29:34.000+02:00</time>
      </trkpt>
      <trkpt lat="46.55593014401904" lon="6.773435637993192">
        <time>2016-03-31T14:30:34.000+02:00</time>
      </trkpt>
      <trkpt lat="46.55623058146802" lon="6.7748338708595375">
        <time>2016-03-31T14:31:34.000+02:00</time>
      </trkpt>
      <trkpt lat="46.55639119291308" lon="6.775386157879904">
        <time>2016-03-31T14:31:34.000+02:00</time>
      </trkpt>
      <trkpt lat="46.55698039132091" lon="6.776161475739584">
        <time>2016-03-31T14:32:34.000+02:00</time>
      </trkpt>
      <trkpt lat="46.55772718946329" lon="6.776967507898734">
        <time>2016-03-31T14:33:34.000+02:00</time>
      </trkpt>
      <trkpt lat="46.5581351611952" lon="6.777516828489768">
        <time>2016-03-31T14:33:34.000+02:00</time>
      </trkpt>
      <trkpt lat="46.55834036208117" lon="6.778003398097762">
        <time>2016-03-31T14:33:34.000+02:00</time>
      </trkpt>
      <trkpt lat="46.558346156100484" lon="6.779014027886386">
        <time>2016-03-31T14:34:34.000+02:00</time>
      </trkpt>
      <trkpt lat="46.55853016849163" lon="6.779729083404577">
        <time>2016-03-31T14:34:34.000+02:00</time>
      </trkpt>
      <trkpt lat="46.55904777113503" lon="6.7797880595379105">
        <time>2016-03-31T14:35:34.000+02:00</time>
      </trkpt>
      <trkpt lat="46.559475047723375" lon="6.7797829162078855">
        <time>2016-03-31T14:35:34.000+02:00</time>
      </trkpt>
      <trkpt lat="46.56003799986058" lon="6.779906556472189">
        <time>2016-03-31T14:36:34.000+02:00</time>
      </trkpt>
      <trkpt lat="46.5607593018051" lon="6.780191317121595">
        <time>2016-03-31T14:37:34.000+02:00</time>
      </trkpt>
      <trkpt lat="46.56132243989801" lon="6.780347567286033">
        <time>2016-03-31T14:38:34.000+02:00</time>
      </trkpt>
      <trkpt lat="46.56197739364952" lon="6.78082877051523">
        <time>2016-03-31T14:39:34.000+02:00</time>
      </trkpt>
      <trkpt lat="46.56249592676954" lon="6.78105077815522">
        <time>2016-03-31T14:39:34.000+02:00</time>
      </trkpt>
      <trkpt lat="46.56278846014059" lon="6.7810798692371055">
        <time>2016-03-31T14:39:34.000+02:00</time>
      </trkpt>
      <trkpt lat="46.56292171369699" lon="6.780784814647106">
        <time>2016-03-31T14:39:34.000+02:00</time>
      </trkpt>
      <trkpt lat="46.562829524988764" lon="6.780394651917612">
        <time>2016-03-31T14:39:34.000+02:00</time>
      </trkpt>
      <trkpt lat="46.562241474575494" lon="6.779814824472126">
        <time>2016-03-31T14:40:34.000+02:00</time>
      </trkpt>
      <trkpt lat="46.56172069924966" lon="6.779201593761858">
        <time>2016-03-31T14:41:34.000+02:00</time>
      </trkpt>
      <trkpt lat="46.56133541067992" lon="6.778684555834381">
        <time>2016-03-31T14:41:34.000+02:00</time>
      </trkpt>
      <trkpt lat="46.56099509625124" lon="6.778166982482121">
        <time>2016-03-31T14:41:34.000+02:00</time>
      </trkpt>
      <trkpt lat="46.56074529383595" lon="6.777746136440406">
        <time>2016-03-31T14:41:34.000+02:00</time>
      </trkpt>
      <trkpt lat="46.56110229773849" lon="6.777252752323928">
        <time>2016-03-31T14:42:34.000+02:00</time>
      </trkpt>
      <trkpt lat="46.561572490226496" lon="6.776888413454379">
        <time>2016-03-31T14:43:34.000+02:00</time>
      </trkpt>
      <trkpt lat="46.56183972499403" lon="6.776428707712042">
        <time>2016-03-31T14:43:34.000+02:00</time>
      </trkpt>
      <trkpt lat="46.56206348217807" lon="6.776230367520537">
        <time>2016-03-31T14:43:34.000+02:00</time>
      </trkpt>
      <trkpt lat="46.56258277411118" lon="6.776582745578734">
        <time>2016-03-31T14:43:34.000+02:00</time>
      </trkpt>
      <trkpt lat="46.563080513377535" lon="6.777098421272952">
        <time>2016-03-31T14:43:34.000+02:00</time>
      </trkpt>
      <trkpt lat="46.563600925715676" lon="6.777646438909454">
        <time>2016-03-31T14:43:34.000+02:00</time>
      </trkpt>
      <trkpt lat="46.56403063442505" lon="6.778065135097146">
        <time>2016-03-31T14:43:34.000+02:00</time>
      </trkpt>
      <trkpt lat="46.56441405651569" lon="6.778256148206245">
        <time>2016-03-31T14:43:34.000+02:00</time>
      </trkpt>
      <trkpt lat="46.564746328317455" lon="6.777371748009213">
        <time>2016-03-31T14:44:34.000+02:00</time>
      </trkpt>
      <trkpt lat="46.565035491150894" lon="6.776813930908892">
        <time>2016-03-31T14:44:34.000+02:00</time>
      </trkpt>
      <trkpt lat="46.56534582643712" lon="6.776027599572115">
        <time>2016-03-31T14:44:34.000+02:00</time>
      </trkpt>
      <trkpt lat="46.56487319827645" lon="6.775968107893961">
        <time>2016-03-31T14:44:34.000+02:00</time>
      </trkpt>
      <trkpt lat="46.564216345907255" lon="6.775160892943458">
        <time>2016-03-31T14:45:34.000+02:00</time>
      </trkpt>
      <trkpt lat="46.56342286528908" lon="6.774061899412561">
        <time>2016-03-31T14:46:34.000+02:00</time>
      </trkpt>
      <trkpt lat="46.56288013586985" lon="6.773546794936518">
        <time>2016-03-31T14:47:34.000+02:00</time>
      </trkpt>
      <trkpt lat="46.562380684008474" lon="6.772737723446223">
        <time>2016-03-31T14:48:34.000+02:00</time>
      </trkpt>
      <trkpt lat="46.56206094342461" lon="6.771893871907281">
        <time>2016-03-31T14:49:34.000+02:00</time>
      </trkpt>
      <trkpt lat="46.561785984018705" lon="6.771016878646779">
        <time>2016-03-31T14:50:34.000+02:00</time>
      </trkpt>
      <trkpt lat="46.561262132859696" lon="6.76988209460815">
        <time>2016-03-31T14:51:34.000+02:00</time>
      </trkpt>
      <trkpt lat="46.56114685025362" lon="6.769394429510289">
        <time>2016-03-31T14:51:34.000+02:00</time>
      </trkpt>
      <trkpt lat="46.56100888770419" lon="6.768874439178002">
        <time>2016-03-31T14:51:34.000+02:00</time>
      </trkpt>
      <trkpt lat="46.56044402630873" lon="6.7684248892653365">
        <time>2016-03-31T14:51:34.000+02:00</time>
      </trkpt>
      <trkpt lat="46.55983532601219" lon="6.768171510791597">
        <time>2016-03-31T14:51:34.000+02:00</time>
      </trkpt>
      <trkpt lat="46.55895486690991" lon="6.767595432496635">
        <time>2016-03-31T14:52:34.000+02:00</time>
      </trkpt>
      <trkpt lat="46.55852511990958" lon="6.767176858309458">
        <time>2016-03-31T14:52:34.000+02:00</time>
      </trkpt>
      <trkpt lat="46.55892838628909" lon="6.766911081572142">
        <time>2016-03-31T14:52:34.000+02:00</time>
      </trkpt>
      <trkpt lat="46.55924074766065" lon="6.766483398188124">
        <time>2016-03-31T14:52:34.000+02:00</time>
      </trkpt>
      <trkpt lat="46.55921502242412" lon="6.765929449953527">
        <time>2016-03-31T14:52:34.000+02:00</time>
      </trkpt>
      <trkpt lat="46.55905303049051" lon="6.765148952903214">
        <time>2016-03-31T14:52:34.000+02:00</time>
      </trkpt>
      <trkpt lat="46.558711891277206" lon="6.7645010816969435">
        <time>2016-03-31T14:52:34.000+02:00</time>
      </trkpt>
      <trkpt lat="46.55816606090414" lon="6.763464504704734">
        <time>2016-03-31T14:53:34.000+02:00</time>
      </trkpt>
      <trkpt lat="46.55778012712917" lon="6.762849810675116">
        <time>2016-03-31T14:53:34.000+02:00</time>
      </trkpt>
      <trkpt lat="46.557213518219164" lon="6.762106948176024">
        <time>2016-03-31T14:54:34.000+02:00</time>
      </trkpt>
      <trkpt lat="46.5568958086965" lon="6.761621839891178">
        <time>2016-03-31T14:54:34.000+02:00</time>
      </trkpt>
      <trkpt lat="46.55671283441748" lon="6.761102466904045">
        <time>2016-03-31T14:54:34.000+02:00</time>
      </trkpt>
      <trkpt lat="46.55653062577407" lon="6.76071349663305">
        <time>2016-03-31T14:54:34.000+02:00</time>
      </trkpt>
      <trkpt lat="46.55666382672997" lon="6.760418426164521">
        <time>2016-03-31T14:54:34.000+02:00</time>
      </trkpt>
      <trkpt lat="46.556909852161084" lon="6.760187160149284">
        <time>2016-03-31T14:54:34.000+02:00</time>
      </trkpt>
      <trkpt lat="46.55708764369238" lon="6.759826328202607">
        <time>2016-03-31T14:54:34.000+02:00</time>
      </trkpt>
      <trkpt lat="46.55737633604429" lon="6.759203295907173">
        <time>2016-03-31T14:54:34.000+02:00</time>
      </trkpt>
      <trkpt lat="46.55809499592716" lon="6.7590313572070535">
        <time>2016-03-31T14:55:34.000+02:00</time>
      </trkpt>
      <trkpt lat="46.558477487603824" lon="6.759059210197883">
        <time>2016-03-31T14:55:34.000+02:00</time>
      </trkpt>
      <trkpt lat="46.558679688852436" lon="6.759024095569401">
        <time>2016-03-31T14:55:34.000+02:00</time>
      </trkpt>
      <trkpt lat="46.55917385158997" lon="6.758920146826106">
        <time>2016-03-31T14:55:34.000+02:00</time>
      </trkpt>
      <trkpt lat="46.55962342288248" lon="6.758881958268713">
        <time>2016-03-31T14:55:34.000+02:00</time>
      </trkpt>
      <trkpt lat="46.56025193699341" lon="6.758678523876884">
        <time>2016-03-31T14:56:34.000+02:00</time>
      </trkpt>
      <trkpt lat="46.560948107929576" lon="6.758506848602868">
        <time>2016-03-31T14:57:34.000+02:00</time>
      </trkpt>
      <trkpt lat="46.56162467926703" lon="6.758824491313264">
        <time>2016-03-31T14:58:34.000+02:00</time>
      </trkpt>
      <trkpt lat="46.562412728422686" lon="6.758977728938581">
        <time>2016-03-31T14:59:34.000+02:00</time>
      </trkpt>
      <trkpt lat="46.56277234699447" lon="6.758940655967695">
        <time>2016-03-31T14:59:34.000+02:00</time>
      </trkpt>
      <trkpt lat="46.56310697411583" lon="6.758480013184047">
        <time>2016-03-31T14:59:34.000+02:00</time>
      </trkpt>
      <trkpt lat="46.56328630173626" lon="6.758379965243641">
        <time>2016-03-31T14:59:34.000+02:00</time>
      </trkpt>
      <trkpt lat="46.56369340025832" lon="6.758766181737632">
        <time>2016-03-31T14:59:34.000+02:00</time>
      </trkpt>
      <trkpt lat="46.564144319135764" lon="6.758956219256158">
        <time>2016-03-31T14:59:34.000+02:00</time>
      </trkpt>
      <trkpt lat="46.56445819128134" lon="6.758789285464671">
        <time>2016-03-31T14:59:34.000+02:00</time>
      </trkpt>
      <trkpt lat="46.56490737746635" lon="6.758685882401885">
        <time>2016-03-31T14:59:34.000+02:00</time>
      </trkpt>
      <trkpt lat="46.565109771184915" lon="6.758683367142807">
        <time>2016-03-31T14:59:34.000+02:00</time>
      </trkpt>
      <trkpt lat="46.565382901675804" lon="6.759234300330004">
        <time>2016-03-31T14:59:34.000+02:00</time>
      </trkpt>
      <trkpt lat="46.565632964539326" lon="6.759687702285567">
        <time>2016-03-31T14:59:34.000+02:00</time>
      </trkpt>
      <trkpt lat="46.565701967015926" lon="6.759947707557313">
        <time>2016-03-31T14:59:34.000+02:00</time>
      </trkpt>
      <trkpt lat="46.56570465690063" lon="6.76040418189368">
        <time>2016-03-31T14:59:34.000+02:00</time>
      </trkpt>
      <trkpt lat="46.565640072306635" lon="6.760894097278328">
        <time>2016-03-31T14:59:34.000+02:00</time>
      </trkpt>
      <trkpt lat="46.565621037336854" lon="6.761481270578096">
        <time>2016-03-31T14:59:34.000+02:00</time>
      </trkpt>
      <trkpt lat="46.56567023025507" lon="6.762198030433262">
        <time>2016-03-31T14:59:34.000+02:00</time>
      </trkpt>
      <trkpt lat="46.565810328137815" lon="6.763076707614785">
        <time>2016-03-31T14:59:34.000+02:00</time>
      </trkpt>
      <trkpt lat="46.56599558672769" lon="6.763987440248517">
        <time>2016-03-31T14:59:34.000+02:00</time>
      </trkpt>
      <trkpt lat="46.56633768310502" lon="6.764798423631313">
        <time>2016-03-31T15:00:34.000+02:00</time>
      </trkpt>
      <trkpt lat="46.566657285522766" lon="6.765609693853625">
        <time>2016-03-31T15:01:34.000+02:00</time>
      </trkpt>
      <trkpt lat="46.56690884645148" lon="6.766323984296783">
        <time>2016-03-31T15:01:34.000+02:00</time>
      </trkpt>
      <trkpt lat="46.567183461621" lon="6.767135824015057">
        <time>2016-03-31T15:01:34.000+02:00</time>
      </trkpt>
      <trkpt lat="46.5674338731759" lon="6.767654490188972">
        <time>2016-03-31T15:01:34.000+02:00</time>
      </trkpt>
      <trkpt lat="46.56757298025173" lon="6.768370177717567">
        <time>2016-03-31T15:01:34.000+02:00</time>
      </trkpt>
      <trkpt lat="46.567938670995055" lon="6.769376577291013">
        <time>2016-03-31T15:02:34.000+02:00</time>
      </trkpt>
      <trkpt lat="46.568214021531986" lon="6.77031887529796">
        <time>2016-03-31T15:03:34.000+02:00</time>
      </trkpt>
      <trkpt lat="46.56853358478493" lon="6.771130206095102">
        <time>2016-03-31T15:03:34.000+02:00</time>
      </trkpt>
      <trkpt lat="46.56880646644893" lon="6.771648629483957">
        <time>2016-03-31T15:03:34.000+02:00</time>
      </trkpt>
      <trkpt lat="46.56926038369357" lon="6.772360511745634">
        <time>2016-03-31T15:03:34.000+02:00</time>
      </trkpt>
      <trkpt lat="46.56993993254672" lon="6.773200102123291">
        <time>2016-03-31T15:04:34.000+02:00</time>
      </trkpt>
      <trkpt lat="46.5703704107107" lon="6.773749244588202">
        <time>2016-03-31T15:04:34.000+02:00</time>
      </trkpt>
      <trkpt lat="46.57097985144263" lon="6.774133168785978">
        <time>2016-03-31T15:05:34.000+02:00</time>
      </trkpt>
      <trkpt lat="46.57125121515836" lon="6.774390761052029">
        <time>2016-03-31T15:05:34.000+02:00</time>
      </trkpt>
      <trkpt lat="46.571593237767495" lon="6.775201888559648">
        <time>2016-03-31T15:05:34.000+02:00</time>
      </trkpt>
      <trkpt lat="46.57197891754538" lon="6.775784217644383">
        <time>2016-03-31T15:05:34.000+02:00</time>
      </trkpt>
      <trkpt lat="46.57231473931219" lon="6.775519256461832">
        <time>2016-03-31T15:05:34.000+02:00</time>
      </trkpt>
      <trkpt lat="46.572535676669965" lon="6.774831732123463">
        <time>2016-03-31T15:05:34.000+02:00</time>
      </trkpt>
      <trkpt lat="46.57284599832455" lon="6.7740452807802125">
        <time>2016-03-31T15:06:34.000+02:00</time>
      </trkpt>
      <trkpt lat="46.57308998012936" lon="6.773455299675289">
        <time>2016-03-31T15:06:34.000+02:00</time>
      </trkpt>
      <trkpt lat="46.57306783669211" lon="6.773582498202648">
        <time>2016-03-31T15:06:34.000+02:00</time>
      </trkpt>
      <trkpt lat="46.57306757241843" lon="6.773536844558631">
        <time>2016-03-31T15:06:34.000+02:00</time>
      </trkpt>
      <trkpt lat="46.573134281893125" lon="6.7734055835096125">
        <time>2016-03-31T15:06:34.000+02:00</time>
      </trkpt>
      <trkpt lat="46.57304244046481" lon="6.773080582301526">
        <time>2016-03-31T15:06:34.000+02:00</time>
      </trkpt>
      <trkpt lat="46.57299689728544" lon="6.772983301511954">
        <time>2016-03-31T15:06:34.000+02:00</time>
      </trkpt>
      <trkpt lat="46.57288370042062" lon="6.772854233965006">
        <time>2016-03-31T15:06:34.000+02:00</time>
      </trkpt>
      <trkpt lat="46.572725337975186" lon="6.772693106026018">
        <time>2016-03-31T15:06:34.000+02:00</time>
      </trkpt>
      <trkpt lat="46.57263425087373" lon="6.772498546398315">
        <time>2016-03-31T15:06:34.000+02:00</time>
      </trkpt>
      <trkpt lat="46.57258776159436" lon="6.772238219565356">
        <time>2016-03-31T15:06:34.000+02:00</time>
      </trkpt>
      <trkpt lat="46.57240634245713" lon="6.771979540845993">
        <time>2016-03-31T15:06:34.000+02:00</time>
      </trkpt>
      <trkpt lat="46.57224797877817" lon="6.771818416878191">
        <time>2016-03-31T15:06:34.000+02:00</time>
      </trkpt>
      <trkpt lat="46.572156132834486" lon="6.77149342367011">
        <time>2016-03-31T15:06:34.000+02:00</time>
      </trkpt>
      <trkpt lat="46.572042366063904" lon="6.771266533869106">
        <time>2016-03-31T15:06:34.000+02:00</time>
      </trkpt>
      <trkpt lat="46.57199587397688" lon="6.7710062109346305">
        <time>2016-03-31T15:06:34.000+02:00</time>
      </trkpt>
      <trkpt lat="46.57194919172164" lon="6.7707132793841724">
        <time>2016-03-31T15:06:34.000+02:00</time>
      </trkpt>
      <trkpt lat="46.57179025733864" lon="6.770454333571743">
        <time>2016-03-31T15:06:34.000+02:00</time>
      </trkpt>
      <trkpt lat="46.57165684502219" lon="6.770716856091218">
        <time>2016-03-31T15:06:34.000+02:00</time>
      </trkpt>
      <trkpt lat="46.57170196625368" lon="6.770667605725805">
        <time>2016-03-31T15:06:34.000+02:00</time>
      </trkpt>
      <trkpt lat="46.57154511607645" lon="6.770767354124146">
        <time>2016-03-31T15:06:34.000+02:00</time>
      </trkpt>
      <trkpt lat="46.57136502117334" lon="6.770736941400829">
        <time>2016-03-31T15:06:34.000+02:00</time>
      </trkpt>
      <trkpt lat="46.571161303085596" lon="6.770511151633708">
        <time>2016-03-31T15:06:34.000+02:00</time>
      </trkpt>
      <trkpt lat="46.571025995359605" lon="6.770447582186796">
        <time>2016-03-31T15:06:34.000+02:00</time>
      </trkpt>
      <trkpt lat="46.570960044033505" lon="6.770709274143458">
        <time>2016-03-31T15:06:34.000+02:00</time>
      </trkpt>
      <trkpt lat="46.57089428115929" lon="6.7710035739343">
        <time>2016-03-31T15:06:34.000+02:00</time>
      </trkpt>
      <trkpt lat="46.570760485925845" lon="6.77120087068327">
        <time>2016-03-31T15:06:34.000+02:00</time>
      </trkpt>
      <trkpt lat="46.57069434395484" lon="6.771429952095393">
        <time>2016-03-31T15:06:34.000+02:00</time>
      </trkpt>
      <trkpt lat="46.57053711530236" lon="6.771464479923168">
        <time>2016-03-31T15:06:34.000+02:00</time>
      </trkpt>
      <trkpt lat="46.57040086332601" lon="6.771237867955462">
        <time>2016-03-31T15:06:34.000+02:00</time>
      </trkpt>
      <trkpt lat="46.5702207685504" lon="6.771207454307867">
        <time>2016-03-31T15:06:34.000+02:00</time>
      </trkpt>
      <trkpt lat="46.56992804364721" lon="6.7711458046008755">
        <time>2016-03-31T15:06:34.000+02:00</time>
      </trkpt>
      <trkpt lat="46.56960961575036" lon="6.770530099052312">
        <time>2016-03-31T15:07:34.000+02:00</time>
      </trkpt>
      <trkpt lat="46.56935921723064" lon="6.770011398821591">
        <time>2016-03-31T15:08:34.000+02:00</time>
      </trkpt>
      <trkpt lat="46.56913092560504" lon="6.769427213549346">
        <time>2016-03-31T15:09:34.000+02:00</time>
      </trkpt>
      <trkpt lat="46.5688347869993" lon="6.7687786446047475">
        <time>2016-03-31T15:10:34.000+02:00</time>
      </trkpt>
      <trkpt lat="46.56869739106362" lon="6.768356403643182">
        <time>2016-03-31T15:10:34.000+02:00</time>
      </trkpt>
      <trkpt lat="46.56833340175114" lon="6.767643459149407">
        <time>2016-03-31T15:11:34.000+02:00</time>
      </trkpt>
      <trkpt lat="46.56812720588227" lon="6.766993805278023">
        <time>2016-03-31T15:12:34.000+02:00</time>
      </trkpt>
      <trkpt lat="46.56798866132674" lon="6.766375934100607">
        <time>2016-03-31T15:12:34.000+02:00</time>
      </trkpt>
      <trkpt lat="46.56785068501757" lon="6.7658558859442595">
        <time>2016-03-31T15:12:34.000+02:00</time>
      </trkpt>
      <trkpt lat="46.567624278511566" lon="6.765597799233806">
        <time>2016-03-31T15:12:34.000+02:00</time>
      </trkpt>
      <trkpt lat="46.567397490081895" lon="6.765274501981015">
        <time>2016-03-31T15:12:34.000+02:00</time>
      </trkpt>
      <trkpt lat="46.567237783797104" lon="6.764885164259951">
        <time>2016-03-31T15:12:34.000+02:00</time>
      </trkpt>
      <trkpt lat="46.567122288914646" lon="6.7643648499599145">
        <time>2016-03-31T15:12:34.000+02:00</time>
      </trkpt>
      <trkpt lat="46.56695990390934" lon="6.763519031783338">
        <time>2016-03-31T15:12:34.000+02:00</time>
      </trkpt>
      <trkpt lat="46.566867273652385" lon="6.763063657403306">
        <time>2016-03-31T15:12:34.000+02:00</time>
      </trkpt>
      <trkpt lat="46.56661550083249" lon="6.762316776775128">
        <time>2016-03-31T15:12:34.000+02:00</time>
      </trkpt>
      <trkpt lat="46.56649961089783" lon="6.761731262328353">
        <time>2016-03-31T15:12:34.000+02:00</time>
      </trkpt>
      <trkpt lat="46.56636199712425" lon="6.761276451682951">
        <time>2016-03-31T15:12:34.000+02:00</time>
      </trkpt>
      <trkpt lat="46.56615634105883" lon="6.760724662375711">
        <time>2016-03-31T15:12:34.000+02:00</time>
      </trkpt>
      <trkpt lat="46.56597413108773" lon="6.760335625751461">
        <time>2016-03-31T15:12:34.000+02:00</time>
      </trkpt>
      <trkpt lat="46.56576904718052" lon="6.759881659997809">
        <time>2016-03-31T15:12:34.000+02:00</time>
      </trkpt>
      <trkpt lat="46.565292948905984" lon="6.759235417318652">
        <time>2016-03-31T15:12:34.000+02:00</time>
      </trkpt>
      <trkpt lat="46.56515513266924" lon="6.758748018143063">
        <time>2016-03-31T15:12:34.000+02:00</time>
      </trkpt>
      <trkpt lat="46.56506286873608" lon="6.758357876898895">
        <time>2016-03-31T15:12:34.000+02:00</time>
      </trkpt>
      <trkpt lat="46.56503748970284" lon="6.757869082967779">
        <time>2016-03-31T15:12:34.000+02:00</time>
      </trkpt>
      <trkpt lat="46.56483471040069" lon="6.757806391700772">
        <time>2016-03-31T15:12:34.000+02:00</time>
      </trkpt>
      <trkpt lat="46.56458560466279" lon="6.757516028220092">
        <time>2016-03-31T15:12:34.000+02:00</time>
      </trkpt>
      <trkpt lat="46.56431227284086" lon="6.756932507312908">
        <time>2016-03-31T15:12:34.000+02:00</time>
      </trkpt>
      <trkpt lat="46.56421903674205" lon="6.756379353197378">
        <time>2016-03-31T15:12:34.000+02:00</time>
      </trkpt>
      <trkpt lat="46.564126958050906" lon="6.756021827061171">
        <time>2016-03-31T15:12:34.000+02:00</time>
      </trkpt>
      <trkpt lat="46.564078306936906" lon="6.75540290617236">
        <time>2016-03-31T15:12:34.000+02:00</time>
      </trkpt>
      <trkpt lat="46.564009100550976" lon="6.755110310192018">
        <time>2016-03-31T15:12:34.000+02:00</time>
      </trkpt>
      <trkpt lat="46.56422913995133" lon="6.754292390589335">
        <time>2016-03-31T15:13:34.000+02:00</time>
      </trkpt>
      <trkpt lat="46.564653507100424" lon="6.75379797622871">
        <time>2016-03-31T15:13:34.000+02:00</time>
      </trkpt>
      <trkpt lat="46.565167436611624" lon="6.7532372174031075">
        <time>2016-03-31T15:14:34.000+02:00</time>
      </trkpt>
      <trkpt lat="46.565434187707126" lon="6.7527121546861055">
        <time>2016-03-31T15:15:34.000+02:00</time>
      </trkpt>
      <trkpt lat="46.565611372499866" lon="6.752253425929662">
        <time>2016-03-31T15:15:34.000+02:00</time>
      </trkpt>
      <trkpt lat="46.565720118187116" lon="6.751632514740159">
        <time>2016-03-31T15:15:34.000+02:00</time>
      </trkpt>
      <trkpt lat="46.56582944470599" lon="6.75110941711568">
        <time>2016-03-31T15:15:34.000+02:00</time>
      </trkpt>
      <trkpt lat="46.56612062244111" lon="6.75091010994153">
        <time>2016-03-31T15:15:34.000+02:00</time>
      </trkpt>
      <trkpt lat="46.566637655603344" lon="6.7508710019418015">
        <time>2016-03-31T15:15:34.000+02:00</time>
      </trkpt>
      <trkpt lat="46.56686156325296" lon="6.750705144894052">
        <time>2016-03-31T15:15:34.000+02:00</time>
      </trkpt>
      <trkpt lat="46.56708293638507" lon="6.75011540717233">
        <time>2016-03-31T15:15:34.000+02:00</time>
      </trkpt>
      <trkpt lat="46.56723781771711" lon="6.7496895454309085">
        <time>2016-03-31T15:15:34.000+02:00</time>
      </trkpt>
      <trkpt lat="46.56748167377565" lon="6.749099516027403">
        <time>2016-03-31T15:15:34.000+02:00</time>
      </trkpt>
      <trkpt lat="46.567794554694636" lon="6.748769482372648">
        <time>2016-03-31T15:15:34.000+02:00</time>
      </trkpt>
      <trkpt lat="46.568241972670386" lon="6.74837252892247">
        <time>2016-03-31T15:16:34.000+02:00</time>
      </trkpt>
      <trkpt lat="46.56839430361333" lon="6.74752276370897">
        <time>2016-03-31T15:17:34.000+02:00</time>
      </trkpt>
      <trkpt lat="46.56881648617507" lon="6.746669580086555">
        <time>2016-03-31T15:18:34.000+02:00</time>
      </trkpt>
      <trkpt lat="46.56930730406941" lon="6.7460111732193635">
        <time>2016-03-31T15:18:34.000+02:00</time>
      </trkpt>
      <trkpt lat="46.569663189221544" lon="6.745354464580284">
        <time>2016-03-31T15:18:34.000+02:00</time>
      </trkpt>
      <trkpt lat="46.56990702289879" lon="6.744764389355787">
        <time>2016-03-31T15:18:34.000+02:00</time>
      </trkpt>
      <trkpt lat="46.56999382982199" lon="6.744241523068416">
        <time>2016-03-31T15:18:34.000+02:00</time>
      </trkpt>
      <trkpt lat="46.570148886062924" lon="6.743848229665019">
        <time>2016-03-31T15:18:34.000+02:00</time>
      </trkpt>
      <trkpt lat="46.57023627957976" lon="6.7434231834855645">
        <time>2016-03-31T15:18:34.000+02:00</time>
      </trkpt>
      <trkpt lat="46.57043946054799" lon="6.743551043402613">
        <time>2016-03-31T15:18:34.000+02:00</time>
      </trkpt>
      <trkpt lat="46.570598058729445" lon="6.7437446920881765">
        <time>2016-03-31T15:18:34.000+02:00</time>
      </trkpt>
      <trkpt lat="46.570756066238886" lon="6.7438405170634015">
        <time>2016-03-31T15:18:34.000+02:00</time>
      </trkpt>
      <trkpt lat="46.571004026288605" lon="6.743935200128267">
        <time>2016-03-31T15:18:34.000+02:00</time>
      </trkpt>
      <trkpt lat="46.57118373475541" lon="6.743900306643236">
        <time>2016-03-31T15:18:34.000+02:00</time>
      </trkpt>
      <trkpt lat="46.57131767967464" lon="6.7437355497520155">
        <time>2016-03-31T15:18:34.000+02:00</time>
      </trkpt>
      <trkpt lat="46.5714283486382" lon="6.743440643086401">
        <time>2016-03-31T15:18:34.000+02:00</time>
      </trkpt>
      <trkpt lat="46.57147234028083" lon="6.743277027891793">
        <time>2016-03-31T15:18:34.000+02:00</time>
      </trkpt>
      <trkpt lat="46.5714926613515" lon="6.742918046074095">
        <time>2016-03-31T15:18:34.000+02:00</time>
      </trkpt>
      <trkpt lat="46.571377066465566" lon="6.7423977378867885">
        <time>2016-03-31T15:18:34.000+02:00</time>
      </trkpt>
      <trkpt lat="46.5712395730865" lon="6.741975544078357">
        <time>2016-03-31T15:18:34.000+02:00</time>
      </trkpt>
      <trkpt lat="46.57119400476241" lon="6.741878291331648">
        <time>2016-03-31T15:18:34.000+02:00</time>
      </trkpt>
      <trkpt lat="46.57117013489826" lon="6.741650318154467">
        <time>2016-03-31T15:18:34.000+02:00</time>
      </trkpt>
      <trkpt lat="46.5713040765731" lon="6.741485555756493">
        <time>2016-03-31T15:18:34.000+02:00</time>
      </trkpt>
      <trkpt lat="46.571528365614874" lon="6.741384863199183">
        <time>2016-03-31T15:18:34.000+02:00</time>
      </trkpt>
      <trkpt lat="46.57161713306329" lon="6.741188063762877">
        <time>2016-03-31T15:18:34.000+02:00</time>
      </trkpt>
      <trkpt lat="46.57161555234752" lon="6.740927193475455">
        <time>2016-03-31T15:18:34.000+02:00</time>
      </trkpt>
      <trkpt lat="46.571410984572985" lon="6.7405710799883165">
        <time>2016-03-31T15:18:34.000+02:00</time>
      </trkpt>
      <trkpt lat="46.571229299476634" lon="6.740279899126012">
        <time>2016-03-31T15:18:34.000+02:00</time>
      </trkpt>
      <trkpt lat="46.57138295639136" lon="6.739658324980808">
        <time>2016-03-31T15:18:34.000+02:00</time>
      </trkpt>
      <trkpt lat="46.57170140169657" lon="6.73905382310828">
        <time>2016-03-31T15:19:34.000+02:00</time>
      </trkpt>
      <trkpt lat="46.571701600769416" lon="6.739086431861384">
        <time>2016-03-31T15:19:34.000+02:00</time>
      </trkpt>
      <trkpt lat="46.57167791808084" lon="6.738891068281889">
        <time>2016-03-31T15:19:34.000+02:00</time>
      </trkpt>
      <trkpt lat="46.57138198690465" lon="6.738307870336819">
        <time>2016-03-31T15:20:34.000+02:00</time>
      </trkpt>
      <trkpt lat="46.571132225542236" lon="6.737919750360771">
        <time>2016-03-31T15:20:34.000+02:00</time>
      </trkpt>
      <trkpt lat="46.57086077272563" lon="6.7376623564213585">
        <time>2016-03-31T15:20:34.000+02:00</time>
      </trkpt>
      <trkpt lat="46.570521655449824" lon="6.737373225657816">
        <time>2016-03-31T15:20:34.000+02:00</time>
      </trkpt>
      <trkpt lat="46.570205025547956" lon="6.737083808834002">
        <time>2016-03-31T15:20:34.000+02:00</time>
      </trkpt>
      <trkpt lat="46.57020510540335" lon="6.737096851972097">
        <time>2016-03-31T15:20:34.000+02:00</time>
      </trkpt>
      <trkpt lat="46.57022751365553" lon="6.73708351915725">
        <time>2016-03-31T15:20:34.000+02:00</time>
      </trkpt>
      <trkpt lat="46.56993162089886" lon="6.737687643685605">
        <time>2016-03-31T15:20:34.000+02:00</time>
      </trkpt>
      <trkpt lat="46.56957320030023" lon="6.737920507662734">
        <time>2016-03-31T15:20:34.000+02:00</time>
      </trkpt>
      <trkpt lat="46.56925717528885" lon="6.737728896916652">
        <time>2016-03-31T15:20:34.000+02:00</time>
      </trkpt>
      <trkpt lat="46.56900762128688" lon="6.737373387607367">
        <time>2016-03-31T15:20:34.000+02:00</time>
      </trkpt>
      <trkpt lat="46.56864622168021" lon="6.737117144871713">
        <time>2016-03-31T15:20:34.000+02:00</time>
      </trkpt>
      <trkpt lat="46.568396864588934" lon="6.7367942492100825">
        <time>2016-03-31T15:21:34.000+02:00</time>
      </trkpt>
      <trkpt lat="46.56823805577775" lon="6.736568021954503">
        <time>2016-03-31T15:21:34.000+02:00</time>
      </trkpt>
      <trkpt lat="46.56805576359715" lon="6.736179051628986">
        <time>2016-03-31T15:21:34.000+02:00</time>
      </trkpt>
      <trkpt lat="46.567941332658165" lon="6.735854430108629">
        <time>2016-03-31T15:21:34.000+02:00</time>
      </trkpt>
      <trkpt lat="46.56809775410414" lon="6.735689374213515">
        <time>2016-03-31T15:21:34.000+02:00</time>
      </trkpt>
      <trkpt lat="46.568345720887436" lon="6.735784015412001">
        <time>2016-03-31T15:21:34.000+02:00</time>
      </trkpt>
      <trkpt lat="46.568615379385825" lon="6.735747940683339">
        <time>2016-03-31T15:21:34.000+02:00</time>
      </trkpt>
      <trkpt lat="46.569018771816545" lon="6.735514488294119">
        <time>2016-03-31T15:21:34.000+02:00</time>
      </trkpt>
      <trkpt lat="46.56935489860783" lon="6.735314507416201">
        <time>2016-03-31T15:21:34.000+02:00</time>
      </trkpt>
      <trkpt lat="46.5695545016886" lon="6.7348553994538465">
        <time>2016-03-31T15:21:34.000+02:00</time>
      </trkpt>
      <trkpt lat="46.56959848104049" lon="6.734691782968145">
        <time>2016-03-31T15:21:34.000+02:00</time>
      </trkpt>
      <trkpt lat="46.56937200420138" lon="6.734433818048142">
        <time>2016-03-31T15:22:34.000+02:00</time>
      </trkpt>
      <trkpt lat="46.56916801491039" lon="6.734175565630348">
        <time>2016-03-31T15:22:34.000+02:00</time>
      </trkpt>
      <trkpt lat="46.5688513847645" lon="6.733886156834263">
        <time>2016-03-31T15:22:34.000+02:00</time>
      </trkpt>
      <trkpt lat="46.568557641432" lon="6.733661675363695">
        <time>2016-03-31T15:22:34.000+02:00</time>
      </trkpt>
      <trkpt lat="46.56824140953333" lon="6.733437486272122">
        <time>2016-03-31T15:22:34.000+02:00</time>
      </trkpt>
      <trkpt lat="46.56801592893634" lon="6.733342565988433">
        <time>2016-03-31T15:22:34.000+02:00</time>
      </trkpt>
      <trkpt lat="46.56767740813827" lon="6.733151277457548">
        <time>2016-03-31T15:22:34.000+02:00</time>
      </trkpt>
      <trkpt lat="46.56747461529843" lon="6.7330886755081565">
        <time>2016-03-31T15:22:34.000+02:00</time>
      </trkpt>
      <trkpt lat="46.56731719841824" lon="6.733090706136335">
        <time>2016-03-31T15:22:34.000+02:00</time>
      </trkpt>
      <trkpt lat="46.567024852784385" lon="6.733094477270274">
        <time>2016-03-31T15:22:34.000+02:00</time>
      </trkpt>
      <trkpt lat="46.56677768325788" lon="6.733130274043734">
        <time>2016-03-31T15:22:34.000+02:00</time>
      </trkpt>
      <trkpt lat="46.56655320168224" lon="6.733198386149322">
        <time>2016-03-31T15:22:34.000+02:00</time>
      </trkpt>
      <trkpt lat="46.56639578480206" lon="6.733200416421678">
        <time>2016-03-31T15:22:34.000+02:00</time>
      </trkpt>
      <trkpt lat="46.566170703711094" lon="6.733170711306369">
        <time>2016-03-31T15:22:34.000+02:00</time>
      </trkpt>
      <trkpt lat="46.56580969451095" lon="6.732979720462296">
        <time>2016-03-31T15:22:34.000+02:00</time>
      </trkpt>
      <trkpt lat="46.56535853254486" lon="6.732757287972721">
        <time>2016-03-31T15:22:34.000+02:00</time>
      </trkpt>
      <trkpt lat="46.565087875158" lon="6.732630351217839">
        <time>2016-03-31T15:22:34.000+02:00</time>
      </trkpt>
      <trkpt lat="46.56479432943171" lon="6.732438496737798">
        <time>2016-03-31T15:22:34.000+02:00</time>
      </trkpt>
      <trkpt lat="46.564411030992076" lon="6.7322804104396194">
        <time>2016-03-31T15:22:34.000+02:00</time>
      </trkpt>
      <trkpt lat="46.56411808508218" lon="6.732186372977226">
        <time>2016-03-31T15:22:34.000+02:00</time>
      </trkpt>
      <trkpt lat="46.56382573949312" lon="6.732190148738145">
        <time>2016-03-31T15:22:34.000+02:00</time>
      </trkpt>
      <trkpt lat="46.56348861777329" lon="6.732227109200428">
        <time>2016-03-31T15:22:34.000+02:00</time>
      </trkpt>
      <trkpt lat="46.56339746447337" lon="6.732032648015218">
        <time>2016-03-31T15:22:34.000+02:00</time>
      </trkpt>
      <trkpt lat="46.563485414860295" lon="6.731705447342796">
        <time>2016-03-31T15:22:34.000+02:00</time>
      </trkpt>
      <trkpt lat="46.56355067583592" lon="6.731345932485542">
        <time>2016-03-31T15:22:34.000+02:00</time>
      </trkpt>
      <trkpt lat="46.563436632070044" lon="6.731086555764316">
        <time>2016-03-31T15:22:34.000+02:00</time>
      </trkpt>
      <trkpt lat="46.56323303623697" lon="6.730893551561934">
        <time>2016-03-31T15:22:34.000+02:00</time>
      </trkpt>
      <trkpt lat="46.56293888593687" lon="6.730603902425188">
        <time>2016-03-31T15:22:34.000+02:00</time>
      </trkpt>
      <trkpt lat="46.56271340300893" lon="6.730509003158923">
        <time>2016-03-31T15:22:34.000+02:00</time>
      </trkpt>
      <trkpt lat="46.56242065627188" lon="6.730447581406302">
        <time>2016-03-31T15:22:34.000+02:00</time>
      </trkpt>
      <trkpt lat="46.56221746068618" lon="6.730319789402477">
        <time>2016-03-31T15:22:34.000+02:00</time>
      </trkpt>
      <trkpt lat="46.5620584383637" lon="6.730061003833381">
        <time>2016-03-31T15:22:34.000+02:00</time>
      </trkpt>
      <trkpt lat="46.56237086259853" lon="6.7296656871700575">
        <time>2016-03-31T15:22:34.000+02:00</time>
      </trkpt>
      <trkpt lat="46.562639112967545" lon="6.729401362627861">
        <time>2016-03-31T15:22:34.000+02:00</time>
      </trkpt>
      <trkpt lat="46.56295213795945" lon="6.729103848537006">
        <time>2016-03-31T15:22:34.000+02:00</time>
      </trkpt>
      <trkpt lat="46.56329454375746" lon="6.728793000736136">
        <time>2016-03-31T15:22:34.000+02:00</time>
      </trkpt>
      <trkpt lat="46.56346514151424" lon="6.728412458364107">
        <time>2016-03-31T15:22:34.000+02:00</time>
      </trkpt>
      <trkpt lat="46.56379944419195" lon="6.727919017683971">
        <time>2016-03-31T15:22:34.000+02:00</time>
      </trkpt>
      <trkpt lat="46.563909669474995" lon="6.727558911490558">
        <time>2016-03-31T15:22:34.000+02:00</time>
      </trkpt>
      <trkpt lat="46.5641767057166" lon="6.7270989434748">
        <time>2016-03-31T15:22:34.000+02:00</time>
      </trkpt>
      <trkpt lat="46.56428672673723" lon="6.726706228791084">
        <time>2016-03-31T15:22:34.000+02:00</time>
      </trkpt>
      <trkpt lat="46.56437546890247" lon="6.726509431656085">
        <time>2016-03-31T15:22:34.000+02:00</time>
      </trkpt>
      <trkpt lat="46.564530867793614" lon="6.726181337356885">
        <time>2016-03-31T15:22:34.000+02:00</time>
      </trkpt>
      <trkpt lat="46.56470834997742" lon="6.725787738958811">
        <time>2016-03-31T15:22:34.000+02:00</time>
      </trkpt>
      <trkpt lat="46.56479729255733" lon="6.725623543422026">
        <time>2016-03-31T15:22:34.000+02:00</time>
      </trkpt>
      <trkpt lat="46.564932019191616" lon="6.725589179704244">
        <time>2016-03-31T15:22:34.000+02:00</time>
      </trkpt>
      <trkpt lat="46.56508923392094" lon="6.725554522617769">
        <time>2016-03-31T15:22:34.000+02:00</time>
      </trkpt>
      <trkpt lat="46.56524503426241" lon="6.725291631060867">
        <time>2016-03-31T15:22:34.000+02:00</time>
      </trkpt>
      <trkpt lat="46.565355453450394" lon="6.724964114909785">
        <time>2016-03-31T15:22:34.000+02:00</time>
      </trkpt>
      <trkpt lat="46.565488764330766" lon="6.724701513923614">
        <time>2016-03-31T15:22:34.000+02:00</time>
      </trkpt>
      <trkpt lat="46.56566624141804" lon="6.724307903744506">
        <time>2016-03-31T15:22:34.000+02:00</time>
      </trkpt>
      <trkpt lat="46.56579955079057" lon="6.72404529964434">
        <time>2016-03-31T15:22:34.000+02:00</time>
      </trkpt>
      <trkpt lat="46.56584351466543" lon="6.723881685744156">
        <time>2016-03-31T15:22:34.000+02:00</time>
      </trkpt>
      <trkpt lat="46.5658196089155" lon="6.723653743001514">
        <time>2016-03-31T15:22:34.000+02:00</time>
      </trkpt>
      <trkpt lat="46.565525440261034" lon="6.723364119337907">
        <time>2016-03-31T15:22:34.000+02:00</time>
      </trkpt>
      <trkpt lat="46.565050757889566" lon="6.722979038306473">
        <time>2016-03-31T15:23:34.000+02:00</time>
      </trkpt>
      <trkpt lat="46.56446343088007" lon="6.722562831695626">
        <time>2016-03-31T15:24:34.000+02:00</time>
      </trkpt>
      <trkpt lat="46.56398955764394" lon="6.7223081817083745">
        <time>2016-03-31T15:24:34.000+02:00</time>
      </trkpt>
      <trkpt lat="46.56344781352094" lon="6.721989212474452">
        <time>2016-03-31T15:24:34.000+02:00</time>
      </trkpt>
      <trkpt lat="46.56310988297296" lon="6.721895821626477">
        <time>2016-03-31T15:24:34.000+02:00</time>
      </trkpt>
      <trkpt lat="46.56274844873254" lon="6.72163970977318">
        <time>2016-03-31T15:24:34.000+02:00</time>
      </trkpt>
      <trkpt lat="46.562364119407434" lon="6.721318689941179">
        <time>2016-03-31T15:24:34.000+02:00</time>
      </trkpt>
      <trkpt lat="46.5615956614602" lon="6.720709266590983">
        <time>2016-03-31T15:25:34.000+02:00</time>
      </trkpt>
      <trkpt lat="46.561504081655045" lon="6.7204496262950775">
        <time>2016-03-31T15:25:34.000+02:00</time>
      </trkpt>
      <trkpt lat="46.56109481753351" lon="6.719737689094568">
        <time>2016-03-31T15:26:34.000+02:00</time>
      </trkpt>
      <trkpt lat="46.56075117799975" lon="6.718731455473438">
        <time>2016-03-31T15:27:34.000+02:00</time>
      </trkpt>
      <trkpt lat="46.560407938081084" lon="6.71779043851779">
        <time>2016-03-31T15:28:34.000+02:00</time>
      </trkpt>
      <trkpt lat="46.56033372932315" lon="6.716715464522262">
        <time>2016-03-31T15:29:34.000+02:00</time>
      </trkpt>
      <trkpt lat="46.56001889620723" lon="6.716719620133922">
        <time>2016-03-31T15:29:34.000+02:00</time>
      </trkpt>
      <trkpt lat="46.55947918229787" lon="6.716726743922043">
        <time>2016-03-31T15:29:34.000+02:00</time>
      </trkpt>
      <trkpt lat="46.55911835027215" lon="6.716568487133468">
        <time>2016-03-31T15:29:34.000+02:00</time>
      </trkpt>
      <trkpt lat="46.558779801484214" lon="6.716377334522553">
        <time>2016-03-31T15:29:34.000+02:00</time>
      </trkpt>
      <trkpt lat="46.558261757105186" lon="6.716253761924021">
        <time>2016-03-31T15:29:34.000+02:00</time>
      </trkpt>
      <trkpt lat="46.5576562160056" lon="6.716522583498463">
        <time>2016-03-31T15:29:34.000+02:00</time>
      </trkpt>
      <trkpt lat="46.55707295784245" lon="6.7167585023363765">
        <time>2016-03-31T15:30:34.000+02:00</time>
      </trkpt>
      <trkpt lat="46.55687281428245" lon="6.7171197716157485">
        <time>2016-03-31T15:30:34.000+02:00</time>
      </trkpt>
      <trkpt lat="46.556808823780244" lon="6.717674858050497">
        <time>2016-03-31T15:30:34.000+02:00</time>
      </trkpt>
      <trkpt lat="46.55671989263041" lon="6.717839042415871">
        <time>2016-03-31T15:30:34.000+02:00</time>
      </trkpt>
      <trkpt lat="46.556269722567464" lon="6.717779770299085">
        <time>2016-03-31T15:30:34.000+02:00</time>
      </trkpt>
      <trkpt lat="46.55588538245828" lon="6.717458816056832">
        <time>2016-03-31T15:31:34.000+02:00</time>
      </trkpt>
      <trkpt lat="46.55554826557387" lon="6.717495862515687">
        <time>2016-03-31T15:31:34.000+02:00</time>
      </trkpt>
      <trkpt lat="46.55523608767448" lon="6.717923798272141">
        <time>2016-03-31T15:31:34.000+02:00</time>
      </trkpt>
      <trkpt lat="46.555194581347" lon="6.718478570958229">
        <time>2016-03-31T15:31:34.000+02:00</time>
      </trkpt>
      <trkpt lat="46.555130380366876" lon="6.719001039845214">
        <time>2016-03-31T15:31:34.000+02:00</time>
      </trkpt>
      <trkpt lat="46.55509212716259" lon="6.720077391017188">
        <time>2016-03-31T15:32:34.000+02:00</time>
      </trkpt>
      <trkpt lat="46.55500888763994" lon="6.721154330608593">
        <time>2016-03-31T15:33:34.000+02:00</time>
      </trkpt>
      <trkpt lat="46.55503543918027" lon="6.721806010578321">
        <time>2016-03-31T15:33:34.000+02:00</time>
      </trkpt>
      <trkpt lat="46.55479294138475" lon="6.722591618650714">
        <time>2016-03-31T15:33:34.000+02:00</time>
      </trkpt>
      <trkpt lat="46.55450586724059" lon="6.723443004660887">
        <time>2016-03-31T15:34:34.000+02:00</time>
      </trkpt>
      <trkpt lat="46.55412984609203" lon="6.72445854737288">
        <time>2016-03-31T15:35:34.000+02:00</time>
      </trkpt>
      <trkpt lat="46.55393068917104" lon="6.724982759194614">
        <time>2016-03-31T15:35:34.000+02:00</time>
      </trkpt>
      <trkpt lat="46.553523274370804" lon="6.724564267680942">
        <time>2016-03-31T15:35:34.000+02:00</time>
      </trkpt>
      <trkpt lat="46.55272930773458" lon="6.723466230628528">
        <time>2016-03-31T15:36:34.000+02:00</time>
      </trkpt>
      <trkpt lat="46.552389959808316" lon="6.723144668765729">
        <time>2016-03-31T15:36:34.000+02:00</time>
      </trkpt>
      <trkpt lat="46.551937156458415" lon="6.722661597710993">
        <time>2016-03-31T15:36:34.000+02:00</time>
      </trkpt>
      <trkpt lat="46.5515062302025" lon="6.7220804503004565">
        <time>2016-03-31T15:36:34.000+02:00</time>
      </trkpt>
      <trkpt lat="46.550960421891475" lon="6.721109630467491">
        <time>2016-03-31T15:37:34.000+02:00</time>
      </trkpt>
      <trkpt lat="46.55061944009904" lon="6.720527325055022">
        <time>2016-03-31T15:37:34.000+02:00</time>
      </trkpt>
      <trkpt lat="46.550503336184505" lon="6.719942072612928">
        <time>2016-03-31T15:37:34.000+02:00</time>
      </trkpt>
      <trkpt lat="46.55016234844775" lon="6.719359779439438">
        <time>2016-03-31T15:37:34.000+02:00</time>
      </trkpt>
      <trkpt lat="46.55027540014992" lon="6.719456088705342">
        <time>2016-03-31T15:37:34.000+02:00</time>
      </trkpt>
      <trkpt lat="46.550024973968895" lon="6.718970404715186">
        <time>2016-03-31T15:37:34.000+02:00</time>
      </trkpt>
      <trkpt lat="46.5497066734152" lon="6.718420422238107">
        <time>2016-03-31T15:37:34.000+02:00</time>
      </trkpt>
      <trkpt lat="46.54884518361243" lon="6.717323441748346">
        <time>2016-03-31T15:38:34.000+02:00</time>
      </trkpt>
      <trkpt lat="46.54848271697691" lon="6.716904453526719">
        <time>2016-03-31T15:38:34.000+02:00</time>
      </trkpt>
      <trkpt lat="46.547354426579574" lon="6.716299999055327">
        <time>2016-03-31T15:39:34.000+02:00</time>
      </trkpt>
      <trkpt lat="46.546834130151744" lon="6.715817921227523">
        <time>2016-03-31T15:39:34.000+02:00</time>
      </trkpt>
      <trkpt lat="46.546381500827096" lon="6.715367554205363">
        <time>2016-03-31T15:39:34.000+02:00</time>
      </trkpt>
      <trkpt lat="46.54619811137933" lon="6.714815844554505">
        <time>2016-03-31T15:39:34.000+02:00</time>
      </trkpt>
      <trkpt lat="46.545948281100905" lon="6.714427998224647">
        <time>2016-03-31T15:39:34.000+02:00</time>
      </trkpt>
      <trkpt lat="46.54500152475666" lon="6.714081981413998">
        <time>2016-03-31T15:40:34.000+02:00</time>
      </trkpt>
      <trkpt lat="46.54475354015106" lon="6.713987479889062">
        <time>2016-03-31T15:40:34.000+02:00</time>
      </trkpt>
      <trkpt lat="46.544297409866864" lon="6.712983076805601">
        <time>2016-03-31T15:41:34.000+02:00</time>
      </trkpt>
      <trkpt lat="46.54388480547948" lon="6.711749949117477">
        <time>2016-03-31T15:42:34.000+02:00</time>
      </trkpt>
      <trkpt lat="46.543519432624635" lon="6.71087475126757">
        <time>2016-03-31T15:43:34.000+02:00</time>
      </trkpt>
      <trkpt lat="46.543201712194524" lon="6.710422656930572">
        <time>2016-03-31T15:43:34.000+02:00</time>
      </trkpt>
      <trkpt lat="46.542883989979" lon="6.7099705678839126">
        <time>2016-03-31T15:43:34.000+02:00</time>
      </trkpt>
      <trkpt lat="46.5426549785167" lon="6.709321737714033">
        <time>2016-03-31T15:43:34.000+02:00</time>
      </trkpt>
      <trkpt lat="46.54244783090584" lon="6.708574839554023">
        <time>2016-03-31T15:43:34.000+02:00</time>
      </trkpt>
      <trkpt lat="46.54230731421799" lon="6.707696681690905">
        <time>2016-03-31T15:44:34.000+02:00</time>
      </trkpt>
      <trkpt lat="46.54207849713154" lon="6.70708045892673">
        <time>2016-03-31T15:44:34.000+02:00</time>
      </trkpt>
      <trkpt lat="46.54171433353778" lon="6.7064008657676775">
        <time>2016-03-31T15:44:34.000+02:00</time>
      </trkpt>
      <trkpt lat="46.54128332474062" lon="6.7058199568121815">
        <time>2016-03-31T15:45:34.000+02:00</time>
      </trkpt>
      <trkpt lat="46.54101201455946" lon="6.705595439684573">
        <time>2016-03-31T15:45:34.000+02:00</time>
      </trkpt>
      <trkpt lat="46.54091998491384" lon="6.705270742884253">
        <time>2016-03-31T15:45:34.000+02:00</time>
      </trkpt>
      <trkpt lat="46.54056100738393" lon="6.705405926068291">
        <time>2016-03-31T15:45:34.000+02:00</time>
      </trkpt>
      <trkpt lat="46.53999880639767" lon="6.70541346086581">
        <time>2016-03-31T15:45:34.000+02:00</time>
      </trkpt>
      <trkpt lat="46.53952697306085" lon="6.705484968710568">
        <time>2016-03-31T15:45:34.000+02:00</time>
      </trkpt>
      <trkpt lat="46.53901037131483" lon="6.7055896670150235">
        <time>2016-03-31T15:45:34.000+02:00</time>
      </trkpt>
      <trkpt lat="46.539054323751095" lon="6.705638703586438">
        <time>2016-03-31T15:45:34.000+02:00</time>
      </trkpt>
      <trkpt lat="46.538785716111754" lon="6.705837859792235">
        <time>2016-03-31T15:45:34.000+02:00</time>
      </trkpt>
      <trkpt lat="46.53833657967605" lon="6.705941662139043">
        <time>2016-03-31T15:45:34.000+02:00</time>
      </trkpt>
      <trkpt lat="46.537796034497596" lon="6.705818551705126">
        <time>2016-03-31T15:45:34.000+02:00</time>
      </trkpt>
      <trkpt lat="46.53732066317801" lon="6.705336070088097">
        <time>2016-03-31T15:45:34.000+02:00</time>
      </trkpt>
      <trkpt lat="46.536890265885944" lon="6.704852992470704">
        <time>2016-03-31T15:45:34.000+02:00</time>
      </trkpt>
      <trkpt lat="46.53641614143958" lon="6.704566052062609">
        <time>2016-03-31T15:45:34.000+02:00</time>
      </trkpt>
      <trkpt lat="46.53589787432195" lon="6.704410070133867">
        <time>2016-03-31T15:45:34.000+02:00</time>
      </trkpt>
      <trkpt lat="46.5355611793533" lon="6.704512366954408">
        <time>2016-03-31T15:45:34.000+02:00</time>
      </trkpt>
      <trkpt lat="46.53542625117389" lon="6.704514181097886">
        <time>2016-03-31T15:45:34.000+02:00</time>
      </trkpt>
      <trkpt lat="46.5354762280252" lon="6.7052956616781225">
        <time>2016-03-31T15:45:34.000+02:00</time>
      </trkpt>
      <trkpt lat="46.535320893876204" lon="6.705623643874672">
        <time>2016-03-31T15:45:34.000+02:00</time>
      </trkpt>
      <trkpt lat="46.53516535071265" lon="6.70591903748818">
        <time>2016-03-31T15:45:34.000+02:00</time>
      </trkpt>
      <trkpt lat="46.535165433942524" lon="6.705932072170757">
        <time>2016-03-31T15:45:34.000+02:00</time>
      </trkpt>
      <trkpt lat="46.53527860294677" lon="6.705835201710929">
        <time>2016-03-31T15:45:34.000+02:00</time>
      </trkpt>
      <trkpt lat="46.53500936935035" lon="6.705936575896877">
        <time>2016-03-31T15:45:34.000+02:00</time>
      </trkpt>
      <trkpt lat="46.53467225638403" lon="6.705973679446425">
        <time>2016-03-31T15:45:34.000+02:00</time>
      </trkpt>
      <trkpt lat="46.5341323358891" lon="6.705948320205911">
        <time>2016-03-31T15:45:34.000+02:00</time>
      </trkpt>
      <trkpt lat="46.53366340750008" lon="6.706476017580198">
        <time>2016-03-31T15:46:34.000+02:00</time>
      </trkpt>
      <trkpt lat="46.53325841535894" lon="6.7064488482963265">
        <time>2016-03-31T15:46:34.000+02:00</time>
      </trkpt>
      <trkpt lat="46.53289881420393" lon="6.706486248354858">
        <time>2016-03-31T15:46:34.000+02:00</time>
      </trkpt>
      <trkpt lat="46.532358271444934" lon="6.706363129597908">
        <time>2016-03-31T15:46:34.000+02:00</time>
      </trkpt>
      <trkpt lat="46.53181855855603" lon="6.706370352281293">
        <time>2016-03-31T15:46:34.000+02:00</time>
      </trkpt>
      <trkpt lat="46.5304940460627" lon="6.706746530910723">
        <time>2016-03-31T15:48:34.000+02:00</time>
      </trkpt>
      <trkpt lat="46.52986562508306" lon="6.70695045407385">
        <time>2016-03-31T15:48:34.000+02:00</time>
      </trkpt>
      <trkpt lat="46.529441461018855" lon="6.707444917030805">
        <time>2016-03-31T15:48:34.000+02:00</time>
      </trkpt>
      <trkpt lat="46.529065375329395" lon="6.7084275182915585">
        <time>2016-03-31T15:49:34.000+02:00</time>
      </trkpt>
      <trkpt lat="46.52862243685196" lon="6.709508753484562">
        <time>2016-03-31T15:50:34.000+02:00</time>
      </trkpt>
      <trkpt lat="46.52828986514613" lon="6.710262648677122">
        <time>2016-03-31T15:50:34.000+02:00</time>
      </trkpt>
      <trkpt lat="46.52865359322738" lon="6.710876934198209">
        <time>2016-03-31T15:50:34.000+02:00</time>
      </trkpt>
      <trkpt lat="46.52913017027483" lon="6.711554900239481">
        <time>2016-03-31T15:51:34.000+02:00</time>
      </trkpt>
      <trkpt lat="46.52935834559707" lon="6.712073245179319">
        <time>2016-03-31T15:51:34.000+02:00</time>
      </trkpt>
      <trkpt lat="46.5297422889968" lon="6.712328837753993">
        <time>2016-03-31T15:51:34.000+02:00</time>
      </trkpt>
      <trkpt lat="46.530261160146125" lon="6.712582643780782">
        <time>2016-03-31T15:51:34.000+02:00</time>
      </trkpt>
      <trkpt lat="46.530531839539385" lon="6.712709399455271">
        <time>2016-03-31T15:51:34.000+02:00</time>
      </trkpt>
      <trkpt lat="46.5311447721988" lon="6.713613707445094">
        <time>2016-03-31T15:52:34.000+02:00</time>
      </trkpt>
      <trkpt lat="46.53180205832374" lon="6.7144196863835885">
        <time>2016-03-31T15:53:34.000+02:00</time>
      </trkpt>
      <trkpt lat="46.53198421925736" lon="6.714775739222137">
        <time>2016-03-31T15:53:34.000+02:00</time>
      </trkpt>
      <trkpt lat="46.532121607936205" lon="6.715164974051808">
        <time>2016-03-31T15:53:34.000+02:00</time>
      </trkpt>
      <trkpt lat="46.53210280784301" lon="6.715751800600696">
        <time>2016-03-31T15:53:34.000+02:00</time>
      </trkpt>
      <trkpt lat="46.5323538615053" lon="6.716335064930712">
        <time>2016-03-31T15:53:34.000+02:00</time>
      </trkpt>
      <trkpt lat="46.53267339862902" lon="6.717080371453922">
        <time>2016-03-31T15:53:34.000+02:00</time>
      </trkpt>
      <trkpt lat="46.53274351956495" lon="6.717503091470821">
        <time>2016-03-31T15:53:34.000+02:00</time>
      </trkpt>
      <trkpt lat="46.53274923643025" lon="6.71841548143574">
        <time>2016-03-31T15:53:34.000+02:00</time>
      </trkpt>
      <trkpt lat="46.532707523795075" lon="6.7189374387108085">
        <time>2016-03-31T15:53:34.000+02:00</time>
      </trkpt>
      <trkpt lat="46.53268768556799" lon="6.719361343678845">
        <time>2016-03-31T15:53:34.000+02:00</time>
      </trkpt>
      <trkpt lat="46.53293994228427" lon="6.720140143880588">
        <time>2016-03-31T15:53:34.000+02:00</time>
      </trkpt>
      <trkpt lat="46.53307873654678" lon="6.720757498115998">
        <time>2016-03-31T15:53:34.000+02:00</time>
      </trkpt>
      <trkpt lat="46.53346469313208" lon="6.72133902757226">
        <time>2016-03-31T15:53:34.000+02:00</time>
      </trkpt>
      <trkpt lat="46.5331970709239" lon="6.72170100665668">
        <time>2016-03-31T15:53:34.000+02:00</time>
      </trkpt>
      <trkpt lat="46.53306417304209" lon="6.722028629895096">
        <time>2016-03-31T15:53:34.000+02:00</time>
      </trkpt>
      <trkpt lat="46.533224633759374" lon="6.7225153535217">
        <time>2016-03-31T15:53:34.000+02:00</time>
      </trkpt>
      <trkpt lat="46.53343087943695" lon="6.723131835045765">
        <time>2016-03-31T15:53:34.000+02:00</time>
      </trkpt>
      <trkpt lat="46.53390799131153" lon="6.7239077265235085">
        <time>2016-03-31T15:54:34.000+02:00</time>
      </trkpt>
      <trkpt lat="46.53409032505898" lon="6.724296411210737">
        <time>2016-03-31T15:54:34.000+02:00</time>
      </trkpt>
      <trkpt lat="46.53409234825481" lon="6.724622273111282">
        <time>2016-03-31T15:54:34.000+02:00</time>
      </trkpt>
      <trkpt lat="46.534479699706026" lon="6.725431945885493">
        <time>2016-03-31T15:55:34.000+02:00</time>
      </trkpt>
      <trkpt lat="46.53495679597834" lon="6.726207872560735">
        <time>2016-03-31T15:56:34.000+02:00</time>
      </trkpt>
      <trkpt lat="46.535522629601445" lon="6.726787120793926">
        <time>2016-03-31T15:57:34.000+02:00</time>
      </trkpt>
      <trkpt lat="46.53586579516153" lon="6.727727763764712">
        <time>2016-03-31T15:58:34.000+02:00</time>
      </trkpt>
      <trkpt lat="46.536073018674266" lon="6.728507232063626">
        <time>2016-03-31T15:58:34.000+02:00</time>
      </trkpt>
      <trkpt lat="46.53682095591539" lon="6.729442649936598">
        <time>2016-03-31T15:59:34.000+02:00</time>
      </trkpt>
      <trkpt lat="46.53714060825774" lon="6.730220683004214">
        <time>2016-03-31T16:00:34.000+02:00</time>
      </trkpt>
      <trkpt lat="46.5374146776876" lon="6.7309015421600185">
        <time>2016-03-31T16:00:34.000+02:00</time>
      </trkpt>
      <trkpt lat="46.53779918025524" lon="6.731255071051878">
        <time>2016-03-31T16:00:34.000+02:00</time>
      </trkpt>
      <trkpt lat="46.538137503666505" lon="6.731413654125034">
        <time>2016-03-31T16:00:34.000+02:00</time>
      </trkpt>
      <trkpt lat="46.53827283297033" lon="6.731477087906736">
        <time>2016-03-31T16:00:34.000+02:00</time>
      </trkpt>
      <trkpt lat="46.53827311340664" lon="6.731522712126144">
        <time>2016-03-31T16:00:34.000+02:00</time>
      </trkpt>
    </trkseg>
  </trk>
</gpx>